METAR Data
IDs: Format: Raw Decoded Include TAF

Data at: 0852 UTC 03 Aug 2021

FAPE 030840Z 01006KT CAVOK 21/10 Q1018 NOSIG